sensor_id;sensor_type;location;lat;lon;timestamp;temperature;humidity
38118;DHT22;23928;47.562;7.508;2023-03-14T00:00:14;10.70;99.90
38118;DHT22;23928;47.562;7.508;2023-03-14T00:02:40;10.60;99.90
38118;DHT22;23928;47.562;7.508;2023-03-14T00:05:07;10.60;99.90
38118;DHT22;23928;47.562;7.508;2023-03-14T00:07:35;10.50;99.90
38118;DHT22;23928;47.562;7.508;2023-03-14T00:10:06;10.50;99.90
38118;DHT22;23928;47.562;7.508;2023-03-14T00:12:32;10.70;99.90
38118;DHT22;23928;47.562;7.508;2023-03-14T00:14:58;10.70;99.90
38118;DHT22;23928;47.562;7.508;2023-03-14T00:17:26;10.60;99.90
38118;DHT22;23928;47.562;7.508;2023-03-14T00:19:52;10.70;99.90
38118;DHT22;23928;47.562;7.508;2023-03-14T00:22:19;10.60;99.90
38118;DHT22;23928;47.562;7.508;2023-03-14T00:24:45;10.50;99.90
38118;DHT22;23928;47.562;7.508;2023-03-14T00:27:11;10.50;99.90
38118;DHT22;23928;47.562;7.508;2023-03-14T00:29:36;10.40;99.90
38118;DHT22;23928;47.562;7.508;2023-03-14T00:32:02;10.40;99.90
38118;DHT22;23928;47.562;7.508;2023-03-14T00:34:32;10.70;99.90
38118;DHT22;23928;47.562;7.508;2023-03-14T00:36:58;10.70;99.90
38118;DHT22;23928;47.562;7.508;2023-03-14T00:39:23;10.70;99.90
38118;DHT22;23928;47.562;7.508;2023-03-14T00:41:49;10.60;99.90
38118;DHT22;23928;47.562;7.508;2023-03-14T00:44:14;10.50;99.90
38118;DHT22;23928;47.562;7.508;2023-03-14T00:46:40;10.70;99.90
38118;DHT22;23928;47.562;7.508;2023-03-14T00:49:05;10.60;99.90
38118;DHT22;23928;47.562;7.508;2023-03-14T00:51:31;10.40;99.90
38118;DHT22;23928;47.562;7.508;2023-03-14T00:53:57;10.40;99.90
38118;DHT22;23928;47.562;7.508;2023-03-14T00:56:22;10.30;99.90
38118;DHT22;23928;47.562;7.508;2023-03-14T00:58:48;10.40;99.90
38118;DHT22;23928;47.562;7.508;2023-03-14T01:01:18;10.50;99.90
38118;DHT22;23928;47.562;7.508;2023-03-14T01:03:44;10.40;99.90
38118;DHT22;23928;47.562;7.508;2023-03-14T01:06:20;10.30;99.90
38118;DHT22;23928;47.562;7.508;2023-03-14T01:08:46;10.40;99.90
38118;DHT22;23928;47.562;7.508;2023-03-14T01:11:15;10.30;99.90
38118;DHT22;23928;47.562;7.508;2023-03-14T01:13:42;10.20;99.90
38118;DHT22;23928;47.562;7.508;2023-03-14T01:16:09;10.20;99.90
38118;DHT22;23928;47.562;7.508;2023-03-14T01:18:36;10.30;99.90
38118;DHT22;23928;47.562;7.508;2023-03-14T01:21:03;10.40;99.90
38118;DHT22;23928;47.562;7.508;2023-03-14T01:23:29;10.30;99.90
38118;DHT22;23928;47.562;7.508;2023-03-14T01:25:55;10.40;99.90
38118;DHT22;23928;47.562;7.508;2023-03-14T01:28:20;10.30;99.90
38118;DHT22;23928;47.562;7.508;2023-03-14T01:30:46;10.30;99.90
38118;DHT22;23928;47.562;7.508;2023-03-14T01:33:11;10.30;99.90
38118;DHT22;23928;47.562;7.508;2023-03-14T01:35:39;10.20;99.90
38118;DHT22;23928;47.562;7.508;2023-03-14T01:38:05;10.00;99.90
38118;DHT22;23928;47.562;7.508;2023-03-14T01:40:30;10.00;99.90
38118;DHT22;23928;47.562;7.508;2023-03-14T01:42:58;10.20;99.90
38118;DHT22;23928;47.562;7.508;2023-03-14T01:48:24;10.20;99.90
38118;DHT22;23928;47.562;7.508;2023-03-14T01:50:51;10.20;99.90
38118;DHT22;23928;47.562;7.508;2023-03-14T01:53:17;10.30;99.90
38118;DHT22;23928;47.562;7.508;2023-03-14T01:55:47;10.20;99.90
38118;DHT22;23928;47.562;7.508;2023-03-14T01:58:14;10.10;99.90
38118;DHT22;23928;47.562;7.508;2023-03-14T02:00:40;10.10;99.90
38118;DHT22;23928;47.562;7.508;2023-03-14T02:03:10;10.30;99.90
38118;DHT22;23928;47.562;7.508;2023-03-14T02:05:39;10.10;99.90
38118;DHT22;23928;47.562;7.508;2023-03-14T02:08:12;10.00;99.90
38118;DHT22;23928;47.562;7.508;2023-03-14T02:10:41;10.20;99.90
38118;DHT22;23928;47.562;7.508;2023-03-14T02:13:08;10.00;99.90
38118;DHT22;23928;47.562;7.508;2023-03-14T02:15:35;10.00;99.90
38118;DHT22;23928;47.562;7.508;2023-03-14T02:18:02;9.90;99.90
38118;DHT22;23928;47.562;7.508;2023-03-14T02:20:45;9.90;99.90
38118;DHT22;23928;47.562;7.508;2023-03-14T02:23:13;9.90;99.90
38118;DHT22;23928;47.562;7.508;2023-03-14T02:25:54;9.90;99.90
38118;DHT22;23928;47.562;7.508;2023-03-14T02:28:22;9.80;99.90
38118;DHT22;23928;47.562;7.508;2023-03-14T02:30:48;9.70;99.90
38118;DHT22;23928;47.562;7.508;2023-03-14T02:33:18;9.70;99.90
38118;DHT22;23928;47.562;7.508;2023-03-14T02:35:51;9.90;99.90
38118;DHT22;23928;47.562;7.508;2023-03-14T02:38:31;9.80;99.90
38118;DHT22;23928;47.562;7.508;2023-03-14T02:40:59;9.70;99.90
38118;DHT22;23928;47.562;7.508;2023-03-14T02:43:25;9.70;99.90
38118;DHT22;23928;47.562;7.508;2023-03-14T02:45:52;9.80;99.90
38118;DHT22;23928;47.562;7.508;2023-03-14T02:48:25;9.80;99.90
38118;DHT22;23928;47.562;7.508;2023-03-14T02:50:56;9.80;99.90
38118;DHT22;23928;47.562;7.508;2023-03-14T02:53:32;9.70;99.90
38118;DHT22;23928;47.562;7.508;2023-03-14T02:55:58;9.70;99.90
38118;DHT22;23928;47.562;7.508;2023-03-14T02:58:24;9.80;99.90
38118;DHT22;23928;47.562;7.508;2023-03-14T03:00:49;9.60;99.90
38118;DHT22;23928;47.562;7.508;2023-03-14T03:03:15;9.50;99.90
38118;DHT22;23928;47.562;7.508;2023-03-14T03:05:41;9.70;99.90
38118;DHT22;23928;47.562;7.508;2023-03-14T03:08:10;9.60;99.90
38118;DHT22;23928;47.562;7.508;2023-03-14T03:10:36;9.50;99.90
38118;DHT22;23928;47.562;7.508;2023-03-14T03:13:01;9.50;99.90
38118;DHT22;23928;47.562;7.508;2023-03-14T03:15:27;9.60;99.90
38118;DHT22;23928;47.562;7.508;2023-03-14T03:17:53;9.50;99.90
38118;DHT22;23928;47.562;7.508;2023-03-14T03:20:19;9.40;99.90
38118;DHT22;23928;47.562;7.508;2023-03-14T03:22:44;9.50;99.90
38118;DHT22;23928;47.562;7.508;2023-03-14T03:25:10;9.50;99.90
38118;DHT22;23928;47.562;7.508;2023-03-14T03:27:37;9.50;99.90
38118;DHT22;23928;47.562;7.508;2023-03-14T03:30:05;9.50;99.90
38118;DHT22;23928;47.562;7.508;2023-03-14T03:32:31;9.50;99.90
38118;DHT22;23928;47.562;7.508;2023-03-14T03:34:57;9.40;99.90
38118;DHT22;23928;47.562;7.508;2023-03-14T03:37:23;9.50;99.90
38118;DHT22;23928;47.562;7.508;2023-03-14T03:39:50;9.40;99.90
38118;DHT22;23928;47.562;7.508;2023-03-14T03:42:17;9.30;99.90
38118;DHT22;23928;47.562;7.508;2023-03-14T03:44:42;9.40;99.90
38118;DHT22;23928;47.562;7.508;2023-03-14T03:47:08;9.40;99.90
38118;DHT22;23928;47.562;7.508;2023-03-14T03:49:34;9.50;99.90
38118;DHT22;23928;47.562;7.508;2023-03-14T03:52:00;9.30;99.90
38118;DHT22;23928;47.562;7.508;2023-03-14T03:54:25;9.30;99.90
38118;DHT22;23928;47.562;7.508;2023-03-14T03:56:51;9.30;99.90
38118;DHT22;23928;47.562;7.508;2023-03-14T03:59:17;9.30;99.90
38118;DHT22;23928;47.562;7.508;2023-03-14T04:01:43;9.40;99.90
38118;DHT22;23928;47.562;7.508;2023-03-14T04:04:09;9.30;99.90
38118;DHT22;23928;47.562;7.508;2023-03-14T04:06:35;9.30;99.90
38118;DHT22;23928;47.562;7.508;2023-03-14T04:09:00;9.30;99.90
38118;DHT22;23928;47.562;7.508;2023-03-14T04:11:26;9.20;99.90
38118;DHT22;23928;47.562;7.508;2023-03-14T04:13:52;9.20;99.90
38118;DHT22;23928;47.562;7.508;2023-03-14T04:16:20;9.30;99.90
38118;DHT22;23928;47.562;7.508;2023-03-14T04:18:46;9.30;99.90
38118;DHT22;23928;47.562;7.508;2023-03-14T04:21:12;9.30;99.90
38118;DHT22;23928;47.562;7.508;2023-03-14T04:23:38;9.30;99.90
38118;DHT22;23928;47.562;7.508;2023-03-14T04:26:03;9.30;99.90
38118;DHT22;23928;47.562;7.508;2023-03-14T04:28:29;8.90;99.90
38118;DHT22;23928;47.562;7.508;2023-03-14T04:30:55;9.00;99.90
38118;DHT22;23928;47.562;7.508;2023-03-14T04:33:20;9.10;99.90
38118;DHT22;23928;47.562;7.508;2023-03-14T04:35:47;9.20;99.90
38118;DHT22;23928;47.562;7.508;2023-03-14T04:38:13;9.20;99.90
38118;DHT22;23928;47.562;7.508;2023-03-14T04:40:40;9.10;99.90
38118;DHT22;23928;47.562;7.508;2023-03-14T04:43:07;9.00;99.90
38118;DHT22;23928;47.562;7.508;2023-03-14T04:45:33;9.20;99.90
38118;DHT22;23928;47.562;7.508;2023-03-14T04:47:58;9.10;99.90
38118;DHT22;23928;47.562;7.508;2023-03-14T04:50:24;9.10;99.90
38118;DHT22;23928;47.562;7.508;2023-03-14T04:52:49;9.10;99.90
38118;DHT22;23928;47.562;7.508;2023-03-14T04:55:15;9.00;99.90
38118;DHT22;23928;47.562;7.508;2023-03-14T04:57:40;9.20;99.90
38118;DHT22;23928;47.562;7.508;2023-03-14T05:00:07;9.30;99.90
38118;DHT22;23928;47.562;7.508;2023-03-14T05:02:33;9.30;99.90
38118;DHT22;23928;47.562;7.508;2023-03-14T05:04:59;9.20;99.90
38118;DHT22;23928;47.562;7.508;2023-03-14T05:07:24;9.00;99.90
38118;DHT22;23928;47.562;7.508;2023-03-14T05:09:50;9.30;99.90
38118;DHT22;23928;47.562;7.508;2023-03-14T05:12:16;9.20;99.90
38118;DHT22;23928;47.562;7.508;2023-03-14T05:14:42;9.10;99.90
38118;DHT22;23928;47.562;7.508;2023-03-14T05:17:07;9.20;99.90
38118;DHT22;23928;47.562;7.508;2023-03-14T05:19:33;9.20;99.90
38118;DHT22;23928;47.562;7.508;2023-03-14T05:21:59;9.20;99.90
38118;DHT22;23928;47.562;7.508;2023-03-14T05:24:24;9.10;99.90
38118;DHT22;23928;47.562;7.508;2023-03-14T05:26:50;9.20;99.90
38118;DHT22;23928;47.562;7.508;2023-03-14T05:29:15;9.20;99.90
38118;DHT22;23928;47.562;7.508;2023-03-14T05:31:41;9.40;99.90
38118;DHT22;23928;47.562;7.508;2023-03-14T05:34:06;9.30;99.90
38118;DHT22;23928;47.562;7.508;2023-03-14T05:36:32;9.10;99.90
38118;DHT22;23928;47.562;7.508;2023-03-14T05:38:57;9.30;99.90
38118;DHT22;23928;47.562;7.508;2023-03-14T05:41:23;9.40;99.90
38118;DHT22;23928;47.562;7.508;2023-03-14T05:43:49;9.40;99.90
38118;DHT22;23928;47.562;7.508;2023-03-14T05:46:14;9.30;99.90
38118;DHT22;23928;47.562;7.508;2023-03-14T05:48:40;9.20;99.90
38118;DHT22;23928;47.562;7.508;2023-03-14T05:51:06;9.10;99.90
38118;DHT22;23928;47.562;7.508;2023-03-14T05:53:32;9.10;99.90
38118;DHT22;23928;47.562;7.508;2023-03-14T05:55:57;9.20;99.90
38118;DHT22;23928;47.562;7.508;2023-03-14T05:58:23;9.30;99.90
38118;DHT22;23928;47.562;7.508;2023-03-14T06:00:50;9.50;99.90
38118;DHT22;23928;47.562;7.508;2023-03-14T06:03:16;9.70;99.90
38118;DHT22;23928;47.562;7.508;2023-03-14T06:05:41;9.80;99.90
38118;DHT22;23928;47.562;7.508;2023-03-14T06:08:07;9.80;99.90
38118;DHT22;23928;47.562;7.508;2023-03-14T06:10:35;9.90;99.90
38118;DHT22;23928;47.562;7.508;2023-03-14T06:13:00;9.90;99.90
38118;DHT22;23928;47.562;7.508;2023-03-14T06:15:26;9.80;99.90
38118;DHT22;23928;47.562;7.508;2023-03-14T06:17:54;9.80;99.90
38118;DHT22;23928;47.562;7.508;2023-03-14T06:20:19;9.80;99.90
38118;DHT22;23928;47.562;7.508;2023-03-14T06:22:45;9.80;99.90
38118;DHT22;23928;47.562;7.508;2023-03-14T06:25:11;9.80;99.90
38118;DHT22;23928;47.562;7.508;2023-03-14T06:27:36;9.90;99.90
38118;DHT22;23928;47.562;7.508;2023-03-14T06:30:02;9.90;99.90
38118;DHT22;23928;47.562;7.508;2023-03-14T06:32:28;9.90;99.90
38118;DHT22;23928;47.562;7.508;2023-03-14T06:34:53;9.80;99.90
38118;DHT22;23928;47.562;7.508;2023-03-14T06:37:19;9.90;99.90
38118;DHT22;23928;47.562;7.508;2023-03-14T06:39:45;9.90;99.90
38118;DHT22;23928;47.562;7.508;2023-03-14T06:42:10;9.80;99.90
38118;DHT22;23928;47.562;7.508;2023-03-14T06:44:36;10.00;99.90
38118;DHT22;23928;47.562;7.508;2023-03-14T06:47:02;10.00;99.90
38118;DHT22;23928;47.562;7.508;2023-03-14T06:49:27;10.10;99.90
38118;DHT22;23928;47.562;7.508;2023-03-14T06:51:53;10.00;99.90
38118;DHT22;23928;47.562;7.508;2023-03-14T06:54:19;10.30;99.90
38118;DHT22;23928;47.562;7.508;2023-03-14T06:56:44;10.20;99.90
38118;DHT22;23928;47.562;7.508;2023-03-14T06:59:10;10.20;99.90
38118;DHT22;23928;47.562;7.508;2023-03-14T07:01:36;10.00;99.90
38118;DHT22;23928;47.562;7.508;2023-03-14T07:04:02;10.00;99.90
38118;DHT22;23928;47.562;7.508;2023-03-14T07:06:28;10.10;99.90
38118;DHT22;23928;47.562;7.508;2023-03-14T07:08:56;10.20;99.90
38118;DHT22;23928;47.562;7.508;2023-03-14T07:11:22;10.20;99.90
38118;DHT22;23928;47.562;7.508;2023-03-14T07:13:48;10.20;99.90
38118;DHT22;23928;47.562;7.508;2023-03-14T07:16:14;10.20;99.90
38118;DHT22;23928;47.562;7.508;2023-03-14T07:18:40;10.30;99.90
38118;DHT22;23928;47.562;7.508;2023-03-14T07:21:08;10.20;99.90
38118;DHT22;23928;47.562;7.508;2023-03-14T07:23:34;10.40;99.90
38118;DHT22;23928;47.562;7.508;2023-03-14T07:26:00;10.40;99.90
38118;DHT22;23928;47.562;7.508;2023-03-14T07:28:26;10.60;99.90
38118;DHT22;23928;47.562;7.508;2023-03-14T07:30:53;10.70;99.90
38118;DHT22;23928;47.562;7.508;2023-03-14T07:33:18;10.80;99.90
38118;DHT22;23928;47.562;7.508;2023-03-14T07:35:49;10.90;99.90
38118;DHT22;23928;47.562;7.508;2023-03-14T07:38:16;11.00;99.90
38118;DHT22;23928;47.562;7.508;2023-03-14T07:40:41;10.90;99.90
38118;DHT22;23928;47.562;7.508;2023-03-14T07:43:07;11.00;99.90
38118;DHT22;23928;47.562;7.508;2023-03-14T07:45:33;11.00;99.90
38118;DHT22;23928;47.562;7.508;2023-03-14T07:47:58;11.00;99.90
38118;DHT22;23928;47.562;7.508;2023-03-14T07:50:26;11.10;99.90
38118;DHT22;23928;47.562;7.508;2023-03-14T07:52:52;11.20;99.90
38118;DHT22;23928;47.562;7.508;2023-03-14T07:55:18;11.10;99.90
38118;DHT22;23928;47.562;7.508;2023-03-14T07:57:43;11.10;99.90
38118;DHT22;23928;47.562;7.508;2023-03-14T08:00:09;11.10;99.90
38118;DHT22;23928;47.562;7.508;2023-03-14T08:02:36;11.10;99.90
38118;DHT22;23928;47.562;7.508;2023-03-14T08:05:03;10.90;99.90
38118;DHT22;23928;47.562;7.508;2023-03-14T08:07:29;11.00;99.90
38118;DHT22;23928;47.562;7.508;2023-03-14T08:09:54;11.00;99.90
38118;DHT22;23928;47.562;7.508;2023-03-14T08:12:20;11.10;99.90
38118;DHT22;23928;47.562;7.508;2023-03-14T08:14:45;11.00;99.90
38118;DHT22;23928;47.562;7.508;2023-03-14T08:17:11;11.10;99.90
38118;DHT22;23928;47.562;7.508;2023-03-14T08:19:37;11.10;99.90
38118;DHT22;23928;47.562;7.508;2023-03-14T08:22:03;11.10;99.90
38118;DHT22;23928;47.562;7.508;2023-03-14T08:24:28;11.10;99.90
38118;DHT22;23928;47.562;7.508;2023-03-14T08:26:54;11.20;99.90
38118;DHT22;23928;47.562;7.508;2023-03-14T08:29:19;11.20;99.90
38118;DHT22;23928;47.562;7.508;2023-03-14T08:31:45;11.20;99.90
38118;DHT22;23928;47.562;7.508;2023-03-14T08:34:11;11.30;99.90
38118;DHT22;23928;47.562;7.508;2023-03-14T08:36:36;11.40;99.90
38118;DHT22;23928;47.562;7.508;2023-03-14T08:39:02;11.50;99.90
38118;DHT22;23928;47.562;7.508;2023-03-14T08:41:29;11.50;99.90
38118;DHT22;23928;47.562;7.508;2023-03-14T08:43:55;11.60;99.90
38118;DHT22;23928;47.562;7.508;2023-03-14T08:46:20;11.60;99.90
38118;DHT22;23928;47.562;7.508;2023-03-14T08:48:46;11.60;99.90
38118;DHT22;23928;47.562;7.508;2023-03-14T08:51:13;11.60;99.90
38118;DHT22;23928;47.562;7.508;2023-03-14T08:53:39;11.60;99.90
38118;DHT22;23928;47.562;7.508;2023-03-14T08:56:06;11.70;99.90
38118;DHT22;23928;47.562;7.508;2023-03-14T08:58:35;11.70;99.90
38118;DHT22;23928;47.562;7.508;2023-03-14T09:01:07;11.80;99.90
38118;DHT22;23928;47.562;7.508;2023-03-14T09:03:33;11.70;99.90
38118;DHT22;23928;47.562;7.508;2023-03-14T09:06:03;11.80;99.90
38118;DHT22;23928;47.562;7.508;2023-03-14T09:08:29;11.80;99.90
38118;DHT22;23928;47.562;7.508;2023-03-14T09:10:55;11.80;99.90
38118;DHT22;23928;47.562;7.508;2023-03-14T09:13:20;11.80;99.90
38118;DHT22;23928;47.562;7.508;2023-03-14T09:15:53;11.70;99.90
38118;DHT22;23928;47.562;7.508;2023-03-14T09:18:19;11.60;99.90
38118;DHT22;23928;47.562;7.508;2023-03-14T09:20:45;11.60;99.90
38118;DHT22;23928;47.562;7.508;2023-03-14T09:23:11;11.40;99.90
38118;DHT22;23928;47.562;7.508;2023-03-14T09:25:36;11.40;99.90
38118;DHT22;23928;47.562;7.508;2023-03-14T09:28:02;11.40;99.90
38118;DHT22;23928;47.562;7.508;2023-03-14T09:30:28;11.40;99.90
38118;DHT22;23928;47.562;7.508;2023-03-14T09:32:53;11.30;99.90
38118;DHT22;23928;47.562;7.508;2023-03-14T09:35:19;11.50;99.90
38118;DHT22;23928;47.562;7.508;2023-03-14T09:37:44;11.60;99.90
38118;DHT22;23928;47.562;7.508;2023-03-14T09:40:15;11.60;99.90
38118;DHT22;23928;47.562;7.508;2023-03-14T09:42:41;11.80;99.90
38118;DHT22;23928;47.562;7.508;2023-03-14T09:45:23;11.90;99.90
38118;DHT22;23928;47.562;7.508;2023-03-14T09:47:50;12.00;99.90
38118;DHT22;23928;47.562;7.508;2023-03-14T09:50:17;12.00;99.90
38118;DHT22;23928;47.562;7.508;2023-03-14T09:52:46;11.90;99.90
38118;DHT22;23928;47.562;7.508;2023-03-14T09:55:18;11.70;99.90
38118;DHT22;23928;47.562;7.508;2023-03-14T09:57:48;11.60;99.90
38118;DHT22;23928;47.562;7.508;2023-03-14T10:00:23;11.50;99.90
38118;DHT22;23928;47.562;7.508;2023-03-14T10:02:53;11.50;99.90
38118;DHT22;23928;47.562;7.508;2023-03-14T10:05:22;11.40;99.90
38118;DHT22;23928;47.562;7.508;2023-03-14T10:07:48;11.30;99.90
38118;DHT22;23928;47.562;7.508;2023-03-14T10:10:22;11.30;99.90
38118;DHT22;23928;47.562;7.508;2023-03-14T10:15:39;10.70;99.90
38118;DHT22;23928;47.562;7.508;2023-03-14T10:18:12;10.70;99.90
38118;DHT22;23928;47.562;7.508;2023-03-14T10:20:43;10.50;99.90
38118;DHT22;23928;47.562;7.508;2023-03-14T10:25:43;10.70;99.90
38118;DHT22;23928;47.562;7.508;2023-03-14T10:28:26;10.80;99.90
38118;DHT22;23928;47.562;7.508;2023-03-14T10:30:53;10.80;99.90
38118;DHT22;23928;47.562;7.508;2023-03-14T10:33:22;10.40;99.90
38118;DHT22;23928;47.562;7.508;2023-03-14T10:35:59;10.20;99.90
38118;DHT22;23928;47.562;7.508;2023-03-14T10:38:31;10.10;99.90
38118;DHT22;23928;47.562;7.508;2023-03-14T10:40:57;10.00;99.90
38118;DHT22;23928;47.562;7.508;2023-03-14T10:43:31;9.80;99.90
38118;DHT22;23928;47.562;7.508;2023-03-14T10:46:00;9.80;99.90
38118;DHT22;23928;47.562;7.508;2023-03-14T10:51:07;9.80;99.90
38118;DHT22;23928;47.562;7.508;2023-03-14T10:53:47;9.80;99.90
38118;DHT22;23928;47.562;7.508;2023-03-14T10:56:14;9.60;99.90
38118;DHT22;23928;47.562;7.508;2023-03-14T10:58:45;9.70;99.90
38118;DHT22;23928;47.562;7.508;2023-03-14T11:03:59;10.00;99.90
38118;DHT22;23928;47.562;7.508;2023-03-14T11:09:33;10.00;99.90
38118;DHT22;23928;47.562;7.508;2023-03-14T11:14:46;9.50;99.90
38118;DHT22;23928;47.562;7.508;2023-03-14T11:22:59;9.30;99.90
38118;DHT22;23928;47.562;7.508;2023-03-14T11:28:26;9.70;99.90
38118;DHT22;23928;47.562;7.508;2023-03-14T11:31:08;9.70;99.90
38118;DHT22;23928;47.562;7.508;2023-03-14T11:36:36;10.20;99.90
38118;DHT22;23928;47.562;7.508;2023-03-14T11:39:03;10.10;99.90
38118;DHT22;23928;47.562;7.508;2023-03-14T11:41:37;10.00;99.90
38118;DHT22;23928;47.562;7.508;2023-03-14T11:44:14;10.20;99.90
38118;DHT22;23928;47.562;7.508;2023-03-14T11:46:44;10.10;99.90
38118;DHT22;23928;47.562;7.508;2023-03-14T11:51:47;10.20;99.90
38118;DHT22;23928;47.562;7.508;2023-03-14T11:56:55;10.40;99.90
38118;DHT22;23928;47.562;7.508;2023-03-14T11:59:28;10.20;99.90
38118;DHT22;23928;47.562;7.508;2023-03-14T12:04:40;10.00;99.90
38118;DHT22;23928;47.562;7.508;2023-03-14T12:07:21;10.10;99.90
38118;DHT22;23928;47.562;7.508;2023-03-14T12:09:51;10.00;99.90
38118;DHT22;23928;47.562;7.508;2023-03-14T12:12:21;9.80;99.90
38118;DHT22;23928;47.562;7.508;2023-03-14T12:15:20;9.60;99.90
38118;DHT22;23928;47.562;7.508;2023-03-14T12:17:46;9.40;99.90
38118;DHT22;23928;47.562;7.508;2023-03-14T12:20:21;9.50;99.90
38118;DHT22;23928;47.562;7.508;2023-03-14T12:22:55;9.30;99.90
38118;DHT22;23928;47.562;7.508;2023-03-14T12:25:27;9.20;99.90
38118;DHT22;23928;47.562;7.508;2023-03-14T12:30:29;8.80;99.90
38118;DHT22;23928;47.562;7.508;2023-03-14T12:35:44;8.00;99.90
38118;DHT22;23928;47.562;7.508;2023-03-14T12:40:40;8.00;99.90
38118;DHT22;23928;47.562;7.508;2023-03-14T12:43:31;8.00;99.90
38118;DHT22;23928;47.562;7.508;2023-03-14T12:46:20;8.40;99.90
38118;DHT22;23928;47.562;7.508;2023-03-14T12:51:34;8.60;99.90
38118;DHT22;23928;47.562;7.508;2023-03-14T12:57:01;8.90;99.90
38118;DHT22;23928;47.562;7.508;2023-03-14T13:04:43;9.10;99.90
38118;DHT22;23928;47.562;7.508;2023-03-14T13:07:30;9.10;99.90
38118;DHT22;23928;47.562;7.508;2023-03-14T13:12:57;9.30;99.90
38118;DHT22;23928;47.562;7.508;2023-03-14T13:15:33;9.60;99.90
38118;DHT22;23928;47.562;7.508;2023-03-14T13:18:16;9.60;99.90
38118;DHT22;23928;47.562;7.508;2023-03-14T13:20:46;9.70;99.90
38118;DHT22;23928;47.562;7.508;2023-03-14T13:23:28;9.70;99.90
38118;DHT22;23928;47.562;7.508;2023-03-14T13:25:55;9.60;99.90
38118;DHT22;23928;47.562;7.508;2023-03-14T13:28:21;9.70;99.90
38118;DHT22;23928;47.562;7.508;2023-03-14T13:30:49;9.70;99.90
38118;DHT22;23928;47.562;7.508;2023-03-14T13:33:21;9.50;99.90
38118;DHT22;23928;47.562;7.508;2023-03-14T13:36:05;9.70;99.90
38118;DHT22;23928;47.562;7.508;2023-03-14T13:38:34;9.80;99.90
38118;DHT22;23928;47.562;7.508;2023-03-14T13:41:04;9.60;99.90
38118;DHT22;23928;47.562;7.508;2023-03-14T13:43:36;9.60;99.90
38118;DHT22;23928;47.562;7.508;2023-03-14T13:46:06;9.70;99.90
38118;DHT22;23928;47.562;7.508;2023-03-14T13:48:35;9.80;99.90
38118;DHT22;23928;47.562;7.508;2023-03-14T13:51:11;9.80;99.90
38118;DHT22;23928;47.562;7.508;2023-03-14T13:53:58;9.80;99.90
38118;DHT22;23928;47.562;7.508;2023-03-14T13:56:31;9.90;99.90
38118;DHT22;23928;47.562;7.508;2023-03-14T13:58:57;9.80;99.90
38118;DHT22;23928;47.562;7.508;2023-03-14T14:01:31;9.90;99.90
38118;DHT22;23928;47.562;7.508;2023-03-14T14:04:05;9.70;99.90
38118;DHT22;23928;47.562;7.508;2023-03-14T14:06:39;9.90;99.90
38118;DHT22;23928;47.562;7.508;2023-03-14T14:09:31;9.80;99.90
38118;DHT22;23928;47.562;7.508;2023-03-14T14:12:10;9.80;99.90
38118;DHT22;23928;47.562;7.508;2023-03-14T14:14:41;9.70;99.90
38118;DHT22;23928;47.562;7.508;2023-03-14T14:17:11;9.70;99.90
38118;DHT22;23928;47.562;7.508;2023-03-14T14:19:38;9.70;99.90
38118;DHT22;23928;47.562;7.508;2023-03-14T14:22:05;9.90;99.90
38118;DHT22;23928;47.562;7.508;2023-03-14T14:24:32;10.30;99.90
38118;DHT22;23928;47.562;7.508;2023-03-14T14:27:12;10.20;99.90
38118;DHT22;23928;47.562;7.508;2023-03-14T14:29:39;10.30;99.90
38118;DHT22;23928;47.562;7.508;2023-03-14T14:34:47;10.20;99.90
38118;DHT22;23928;47.562;7.508;2023-03-14T14:37:29;10.20;99.90
38118;DHT22;23928;47.562;7.508;2023-03-14T14:39:58;10.10;99.90
38118;DHT22;23928;47.562;7.508;2023-03-14T14:42:27;10.30;99.90
38118;DHT22;23928;47.562;7.508;2023-03-14T14:44:56;10.40;99.90
38118;DHT22;23928;47.562;7.508;2023-03-14T14:47:24;10.60;99.90
38118;DHT22;23928;47.562;7.508;2023-03-14T14:49:52;10.40;99.90
38118;DHT22;23928;47.562;7.508;2023-03-14T14:52:20;10.50;99.90
38118;DHT22;23928;47.562;7.508;2023-03-14T14:54:57;10.30;99.90
38118;DHT22;23928;47.562;7.508;2023-03-14T14:57:29;10.30;99.90
38118;DHT22;23928;47.562;7.508;2023-03-14T15:00:00;10.30;99.90
38118;DHT22;23928;47.562;7.508;2023-03-14T15:02:45;10.30;99.90
38118;DHT22;23928;47.562;7.508;2023-03-14T15:05:13;10.30;99.90
38118;DHT22;23928;47.562;7.508;2023-03-14T15:07:39;10.50;99.90
38118;DHT22;23928;47.562;7.508;2023-03-14T15:10:06;10.40;99.90
38118;DHT22;23928;47.562;7.508;2023-03-14T15:12:32;10.40;99.90
38118;DHT22;23928;47.562;7.508;2023-03-14T15:14:57;10.30;99.90
38118;DHT22;23928;47.562;7.508;2023-03-14T15:17:23;10.30;99.90
38118;DHT22;23928;47.562;7.508;2023-03-14T15:19:49;10.20;99.90
38118;DHT22;23928;47.562;7.508;2023-03-14T15:22:15;10.20;99.90
38118;DHT22;23928;47.562;7.508;2023-03-14T15:24:41;10.30;99.90
38118;DHT22;23928;47.562;7.508;2023-03-14T15:27:13;10.30;99.90
38118;DHT22;23928;47.562;7.508;2023-03-14T15:29:40;10.10;99.90
38118;DHT22;23928;47.562;7.508;2023-03-14T15:32:05;10.00;99.90
38118;DHT22;23928;47.562;7.508;2023-03-14T15:34:32;9.90;99.90
38118;DHT22;23928;47.562;7.508;2023-03-14T15:36:57;9.80;99.90
38118;DHT22;23928;47.562;7.508;2023-03-14T15:39:23;9.90;99.90
38118;DHT22;23928;47.562;7.508;2023-03-14T15:41:49;9.90;99.90
38118;DHT22;23928;47.562;7.508;2023-03-14T15:44:14;10.10;99.90
38118;DHT22;23928;47.562;7.508;2023-03-14T15:46:40;10.20;99.90
38118;DHT22;23928;47.562;7.508;2023-03-14T15:49:05;10.30;99.90
38118;DHT22;23928;47.562;7.508;2023-03-14T15:51:31;10.20;99.90
38118;DHT22;23928;47.562;7.508;2023-03-14T15:53:57;10.10;99.90
38118;DHT22;23928;47.562;7.508;2023-03-14T15:56:23;9.90;99.90
38118;DHT22;23928;47.562;7.508;2023-03-14T15:58:50;9.70;99.90
38118;DHT22;23928;47.562;7.508;2023-03-14T16:01:16;9.80;99.90
38118;DHT22;23928;47.562;7.508;2023-03-14T16:03:43;9.70;99.90
38118;DHT22;23928;47.562;7.508;2023-03-14T16:06:10;9.50;99.90
38118;DHT22;23928;47.562;7.508;2023-03-14T16:08:36;9.50;99.90
38118;DHT22;23928;47.562;7.508;2023-03-14T16:11:01;9.40;99.90
38118;DHT22;23928;47.562;7.508;2023-03-14T16:13:27;9.20;99.90
38118;DHT22;23928;47.562;7.508;2023-03-14T16:16:03;8.80;99.90
38118;DHT22;23928;47.562;7.508;2023-03-14T16:18:34;8.50;99.90
38118;DHT22;23928;47.562;7.508;2023-03-14T16:21:02;8.50;99.90
38118;DHT22;23928;47.562;7.508;2023-03-14T16:23:31;8.40;99.90
38118;DHT22;23928;47.562;7.508;2023-03-14T16:25:57;8.20;99.90
38118;DHT22;23928;47.562;7.508;2023-03-14T16:28:23;8.30;99.90
38118;DHT22;23928;47.562;7.508;2023-03-14T16:30:49;8.20;99.90
38118;DHT22;23928;47.562;7.508;2023-03-14T16:33:16;8.10;99.90
38118;DHT22;23928;47.562;7.508;2023-03-14T16:35:41;8.00;99.90
38118;DHT22;23928;47.562;7.508;2023-03-14T16:38:17;8.10;99.90
38118;DHT22;23928;47.562;7.508;2023-03-14T16:40:43;8.10;99.90
38118;DHT22;23928;47.562;7.508;2023-03-14T16:43:08;8.00;99.90
38118;DHT22;23928;47.562;7.508;2023-03-14T16:45:36;8.20;99.90